sensor_id;sensor_type;location;lat;lon;timestamp;temperature;humidity
5560;DHT22;2803;47.916;8.074;2024-01-16T00:00:39;-0.80;99.90
5560;DHT22;2803;47.916;8.074;2024-01-16T00:03:06;-1.20;99.90
5560;DHT22;2803;47.916;8.074;2024-01-16T00:05:33;-0.80;99.90
5560;DHT22;2803;47.916;8.074;2024-01-16T00:07:59;-1.00;99.90
5560;DHT22;2803;47.916;8.074;2024-01-16T00:10:26;-1.60;99.90
5560;DHT22;2803;47.916;8.074;2024-01-16T00:12:53;-2.30;99.90
5560;DHT22;2803;47.916;8.074;2024-01-16T00:15:19;-2.30;99.90
5560;DHT22;2803;47.916;8.074;2024-01-16T00:17:46;-2.40;99.90
5560;DHT22;2803;47.916;8.074;2024-01-16T00:20:13;-2.00;99.90
5560;DHT22;2803;47.916;8.074;2024-01-16T00:22:41;-1.80;99.90
5560;DHT22;2803;47.916;8.074;2024-01-16T00:25:08;-1.70;99.90
5560;DHT22;2803;47.916;8.074;2024-01-16T00:27:35;-1.80;99.90
5560;DHT22;2803;47.916;8.074;2024-01-16T00:30:01;-1.90;99.90
5560;DHT22;2803;47.916;8.074;2024-01-16T00:32:28;-1.70;99.90
5560;DHT22;2803;47.916;8.074;2024-01-16T00:34:54;-1.60;99.90
5560;DHT22;2803;47.916;8.074;2024-01-16T00:37:21;-1.50;99.90
5560;DHT22;2803;47.916;8.074;2024-01-16T00:39:49;-1.90;99.90
5560;DHT22;2803;47.916;8.074;2024-01-16T00:42:15;-1.90;99.90
5560;DHT22;2803;47.916;8.074;2024-01-16T00:44:42;-2.00;99.90
5560;DHT22;2803;47.916;8.074;2024-01-16T00:47:08;-2.00;99.90
5560;DHT22;2803;47.916;8.074;2024-01-16T00:49:35;-2.60;99.90
5560;DHT22;2803;47.916;8.074;2024-01-16T00:52:02;-2.80;99.90
5560;DHT22;2803;47.916;8.074;2024-01-16T00:54:29;-2.60;99.90
5560;DHT22;2803;47.916;8.074;2024-01-16T00:56:56;-2.30;99.90
5560;DHT22;2803;47.916;8.074;2024-01-16T00:59:25;-2.20;99.90
5560;DHT22;2803;47.916;8.074;2024-01-16T01:01:51;-2.50;99.90
5560;DHT22;2803;47.916;8.074;2024-01-16T01:04:18;-2.80;99.90
5560;DHT22;2803;47.916;8.074;2024-01-16T01:06:44;-3.00;99.90
5560;DHT22;2803;47.916;8.074;2024-01-16T01:09:11;-2.70;99.90
5560;DHT22;2803;47.916;8.074;2024-01-16T01:11:38;-2.50;99.90
5560;DHT22;2803;47.916;8.074;2024-01-16T01:14:06;-3.10;99.90
5560;DHT22;2803;47.916;8.074;2024-01-16T01:16:32;-3.50;99.90
5560;DHT22;2803;47.916;8.074;2024-01-16T01:18:59;-3.40;99.90
5560;DHT22;2803;47.916;8.074;2024-01-16T01:21:26;-3.40;99.90
5560;DHT22;2803;47.916;8.074;2024-01-16T01:23:52;-3.00;99.90
5560;DHT22;2803;47.916;8.074;2024-01-16T01:26:19;-2.90;99.90
5560;DHT22;2803;47.916;8.074;2024-01-16T01:28:46;-3.40;99.90
5560;DHT22;2803;47.916;8.074;2024-01-16T01:31:14;-3.60;99.90
5560;DHT22;2803;47.916;8.074;2024-01-16T01:33:40;-3.60;99.90
5560;DHT22;2803;47.916;8.074;2024-01-16T01:36:08;-3.60;99.90
5560;DHT22;2803;47.916;8.074;2024-01-16T01:38:35;-3.70;99.90
5560;DHT22;2803;47.916;8.074;2024-01-16T01:41:02;-4.00;99.90
5560;DHT22;2803;47.916;8.074;2024-01-16T01:43:28;-4.00;99.90
5560;DHT22;2803;47.916;8.074;2024-01-16T01:46:08;-4.00;99.90
5560;DHT22;2803;47.916;8.074;2024-01-16T01:48:37;-3.50;99.90
5560;DHT22;2803;47.916;8.074;2024-01-16T01:51:04;-3.40;99.90
5560;DHT22;2803;47.916;8.074;2024-01-16T01:53:33;-3.30;99.90
5560;DHT22;2803;47.916;8.074;2024-01-16T01:56:03;-3.40;99.90
5560;DHT22;2803;47.916;8.074;2024-01-16T01:58:31;-3.90;99.90
5560;DHT22;2803;47.916;8.074;2024-01-16T02:00:59;-4.20;99.90
5560;DHT22;2803;47.916;8.074;2024-01-16T02:03:27;-4.20;99.90
5560;DHT22;2803;47.916;8.074;2024-01-16T02:05:55;-3.80;99.90
5560;DHT22;2803;47.916;8.074;2024-01-16T02:08:22;-3.50;99.90
5560;DHT22;2803;47.916;8.074;2024-01-16T02:10:49;-4.00;99.90
5560;DHT22;2803;47.916;8.074;2024-01-16T02:13:18;-4.10;99.90
5560;DHT22;2803;47.916;8.074;2024-01-16T02:15:48;-4.10;99.90
5560;DHT22;2803;47.916;8.074;2024-01-16T02:18:15;-4.10;99.90
5560;DHT22;2803;47.916;8.074;2024-01-16T02:20:42;-3.80;99.90
5560;DHT22;2803;47.916;8.074;2024-01-16T02:23:12;-4.10;99.90
5560;DHT22;2803;47.916;8.074;2024-01-16T02:25:41;-4.20;99.90
5560;DHT22;2803;47.916;8.074;2024-01-16T02:28:08;-4.40;99.90
5560;DHT22;2803;47.916;8.074;2024-01-16T02:30:34;-4.20;99.90
5560;DHT22;2803;47.916;8.074;2024-01-16T02:33:01;-4.50;99.90
5560;DHT22;2803;47.916;8.074;2024-01-16T02:35:29;-4.00;99.90
5560;DHT22;2803;47.916;8.074;2024-01-16T02:37:55;-3.80;99.90
5560;DHT22;2803;47.916;8.074;2024-01-16T02:40:22;-3.50;99.90
5560;DHT22;2803;47.916;8.074;2024-01-16T02:42:50;-3.60;99.90
5560;DHT22;2803;47.916;8.074;2024-01-16T02:45:16;-4.30;99.90
5560;DHT22;2803;47.916;8.074;2024-01-16T02:47:43;-4.40;99.90
5560;DHT22;2803;47.916;8.074;2024-01-16T02:50:10;-4.20;99.90
5560;DHT22;2803;47.916;8.074;2024-01-16T02:52:36;-4.00;99.90
5560;DHT22;2803;47.916;8.074;2024-01-16T02:55:03;-4.30;99.90
5560;DHT22;2803;47.916;8.074;2024-01-16T02:57:30;-4.60;99.90
5560;DHT22;2803;47.916;8.074;2024-01-16T02:59:58;-4.30;99.90
5560;DHT22;2803;47.916;8.074;2024-01-16T03:02:25;-4.10;99.90
5560;DHT22;2803;47.916;8.074;2024-01-16T03:04:51;-4.00;99.90
5560;DHT22;2803;47.916;8.074;2024-01-16T03:07:18;-4.10;99.90
5560;DHT22;2803;47.916;8.074;2024-01-16T03:09:45;-4.20;99.90
5560;DHT22;2803;47.916;8.074;2024-01-16T03:12:11;-3.80;99.90
5560;DHT22;2803;47.916;8.074;2024-01-16T03:14:38;-3.80;99.90
5560;DHT22;2803;47.916;8.074;2024-01-16T03:17:06;-4.30;99.90
5560;DHT22;2803;47.916;8.074;2024-01-16T03:19:32;-4.90;99.90
5560;DHT22;2803;47.916;8.074;2024-01-16T03:21:59;-4.70;99.90
5560;DHT22;2803;47.916;8.074;2024-01-16T03:24:25;-4.80;99.90
5560;DHT22;2803;47.916;8.074;2024-01-16T03:26:52;-4.90;99.90
5560;DHT22;2803;47.916;8.074;2024-01-16T03:29:19;-4.30;99.90
5560;DHT22;2803;47.916;8.074;2024-01-16T03:31:45;-4.20;99.90
5560;DHT22;2803;47.916;8.074;2024-01-16T03:34:13;-4.70;99.90
5560;DHT22;2803;47.916;8.074;2024-01-16T03:36:40;-4.30;99.90
5560;DHT22;2803;47.916;8.074;2024-01-16T03:39:06;-3.90;99.90
5560;DHT22;2803;47.916;8.074;2024-01-16T03:41:34;-3.70;99.90
5560;DHT22;2803;47.916;8.074;2024-01-16T03:44:00;-4.00;99.90
5560;DHT22;2803;47.916;8.074;2024-01-16T03:46:27;-4.60;99.90
5560;DHT22;2803;47.916;8.074;2024-01-16T03:48:54;-4.70;99.90
5560;DHT22;2803;47.916;8.074;2024-01-16T03:51:22;-4.10;99.90
5560;DHT22;2803;47.916;8.074;2024-01-16T03:53:49;-4.00;99.90
5560;DHT22;2803;47.916;8.074;2024-01-16T03:56:16;-4.10;99.90
5560;DHT22;2803;47.916;8.074;2024-01-16T03:58:43;-3.90;99.90
5560;DHT22;2803;47.916;8.074;2024-01-16T04:01:09;-3.70;99.90
5560;DHT22;2803;47.916;8.074;2024-01-16T04:03:36;-3.50;99.90
5560;DHT22;2803;47.916;8.074;2024-01-16T04:06:04;-3.40;99.90
5560;DHT22;2803;47.916;8.074;2024-01-16T04:08:41;-4.20;99.90
5560;DHT22;2803;47.916;8.074;2024-01-16T04:11:11;-4.30;99.90
5560;DHT22;2803;47.916;8.074;2024-01-16T04:13:38;-4.20;99.90
5560;DHT22;2803;47.916;8.074;2024-01-16T04:16:05;-4.00;99.90
5560;DHT22;2803;47.916;8.074;2024-01-16T04:18:35;-4.20;99.90
5560;DHT22;2803;47.916;8.074;2024-01-16T04:21:02;-4.90;99.90
5560;DHT22;2803;47.916;8.074;2024-01-16T04:23:29;-4.50;99.90
5560;DHT22;2803;47.916;8.074;2024-01-16T04:25:57;-4.90;99.90
5560;DHT22;2803;47.916;8.074;2024-01-16T04:28:24;-4.80;99.90
5560;DHT22;2803;47.916;8.074;2024-01-16T04:30:50;-4.90;99.90
5560;DHT22;2803;47.916;8.074;2024-01-16T04:33:17;-4.70;99.90
5560;DHT22;2803;47.916;8.074;2024-01-16T04:35:44;-4.50;99.90
5560;DHT22;2803;47.916;8.074;2024-01-16T04:38:11;-4.80;99.90
5560;DHT22;2803;47.916;8.074;2024-01-16T04:40:37;-4.60;99.90
5560;DHT22;2803;47.916;8.074;2024-01-16T04:43:05;-4.30;99.90
5560;DHT22;2803;47.916;8.074;2024-01-16T04:45:32;-4.90;99.90
5560;DHT22;2803;47.916;8.074;2024-01-16T04:47:58;-5.00;99.90
5560;DHT22;2803;47.916;8.074;2024-01-16T04:50:25;-4.80;99.90
5560;DHT22;2803;47.916;8.074;2024-01-16T04:52:56;-4.80;99.90
5560;DHT22;2803;47.916;8.074;2024-01-16T04:55:23;-4.50;99.90
5560;DHT22;2803;47.916;8.074;2024-01-16T04:57:50;-4.30;99.90
5560;DHT22;2803;47.916;8.074;2024-01-16T05:00:18;-4.00;99.90
5560;DHT22;2803;47.916;8.074;2024-01-16T05:02:45;-3.90;99.90
5560;DHT22;2803;47.916;8.074;2024-01-16T05:05:13;-4.40;99.90
5560;DHT22;2803;47.916;8.074;2024-01-16T05:07:40;-4.50;99.90
5560;DHT22;2803;47.916;8.074;2024-01-16T05:10:09;-4.80;99.90
5560;DHT22;2803;47.916;8.074;2024-01-16T05:12:36;-5.00;99.90
5560;DHT22;2803;47.916;8.074;2024-01-16T05:15:03;-4.50;99.90
5560;DHT22;2803;47.916;8.074;2024-01-16T05:17:31;-4.40;99.90
5560;DHT22;2803;47.916;8.074;2024-01-16T05:19:57;-4.30;99.90
5560;DHT22;2803;47.916;8.074;2024-01-16T05:22:24;-4.80;99.90
5560;DHT22;2803;47.916;8.074;2024-01-16T05:24:51;-4.70;99.90
5560;DHT22;2803;47.916;8.074;2024-01-16T05:27:19;-4.50;99.90
5560;DHT22;2803;47.916;8.074;2024-01-16T05:29:45;-4.40;99.90
5560;DHT22;2803;47.916;8.074;2024-01-16T05:32:13;-5.20;99.90
5560;DHT22;2803;47.916;8.074;2024-01-16T05:34:41;-4.70;99.90
5560;DHT22;2803;47.916;8.074;2024-01-16T05:37:08;-4.60;99.90
5560;DHT22;2803;47.916;8.074;2024-01-16T05:39:34;-5.20;99.90
5560;DHT22;2803;47.916;8.074;2024-01-16T05:42:02;-4.60;99.90
5560;DHT22;2803;47.916;8.074;2024-01-16T05:44:28;-4.60;99.90
5560;DHT22;2803;47.916;8.074;2024-01-16T05:46:55;-4.70;99.90
5560;DHT22;2803;47.916;8.074;2024-01-16T05:49:22;-4.40;99.90
5560;DHT22;2803;47.916;8.074;2024-01-16T05:51:49;-4.30;99.90
5560;DHT22;2803;47.916;8.074;2024-01-16T05:54:16;-4.40;99.90
5560;DHT22;2803;47.916;8.074;2024-01-16T05:56:43;-4.80;99.90
5560;DHT22;2803;47.916;8.074;2024-01-16T05:59:09;-5.60;99.90
5560;DHT22;2803;47.916;8.074;2024-01-16T06:01:36;-6.40;99.90
5560;DHT22;2803;47.916;8.074;2024-01-16T06:04:03;-6.50;99.90
5560;DHT22;2803;47.916;8.074;2024-01-16T06:06:30;-6.50;99.90
5560;DHT22;2803;47.916;8.074;2024-01-16T06:08:58;-6.40;99.90
5560;DHT22;2803;47.916;8.074;2024-01-16T06:11:30;-6.60;99.90
5560;DHT22;2803;47.916;8.074;2024-01-16T06:13:57;-5.80;99.90
5560;DHT22;2803;47.916;8.074;2024-01-16T06:16:23;-5.10;99.90
5560;DHT22;2803;47.916;8.074;2024-01-16T06:18:50;-5.30;99.90
5560;DHT22;2803;47.916;8.074;2024-01-16T06:21:17;-6.10;99.90
5560;DHT22;2803;47.916;8.074;2024-01-16T06:23:44;-5.90;99.90
5560;DHT22;2803;47.916;8.074;2024-01-16T06:26:11;-6.20;99.90
5560;DHT22;2803;47.916;8.074;2024-01-16T06:28:38;-6.40;99.90
5560;DHT22;2803;47.916;8.074;2024-01-16T06:31:07;-5.90;99.90
5560;DHT22;2803;47.916;8.074;2024-01-16T06:33:34;-5.50;99.90
5560;DHT22;2803;47.916;8.074;2024-01-16T06:36:01;-5.20;99.90
5560;DHT22;2803;47.916;8.074;2024-01-16T06:38:29;-5.10;99.90
5560;DHT22;2803;47.916;8.074;2024-01-16T06:40:56;-5.00;99.90
5560;DHT22;2803;47.916;8.074;2024-01-16T06:43:24;-5.60;99.90
5560;DHT22;2803;47.916;8.074;2024-01-16T06:45:50;-5.60;99.90
5560;DHT22;2803;47.916;8.074;2024-01-16T06:48:17;-5.40;99.90
5560;DHT22;2803;47.916;8.074;2024-01-16T06:50:43;-5.40;99.90
5560;DHT22;2803;47.916;8.074;2024-01-16T06:53:10;-4.90;99.90
5560;DHT22;2803;47.916;8.074;2024-01-16T06:55:36;-4.70;99.90
5560;DHT22;2803;47.916;8.074;2024-01-16T06:58:04;-5.50;99.90
5560;DHT22;2803;47.916;8.074;2024-01-16T07:00:32;-5.70;99.90
5560;DHT22;2803;47.916;8.074;2024-01-16T07:02:58;-5.50;99.90
5560;DHT22;2803;47.916;8.074;2024-01-16T07:05:25;-6.30;99.90
5560;DHT22;2803;47.916;8.074;2024-01-16T07:07:51;-6.20;99.90
5560;DHT22;2803;47.916;8.074;2024-01-16T07:10:18;-5.60;99.90
5560;DHT22;2803;47.916;8.074;2024-01-16T07:12:47;-6.20;99.90
5560;DHT22;2803;47.916;8.074;2024-01-16T07:15:15;-6.40;99.90
5560;DHT22;2803;47.916;8.074;2024-01-16T07:17:43;-6.20;99.90
5560;DHT22;2803;47.916;8.074;2024-01-16T07:20:10;-6.30;99.90
5560;DHT22;2803;47.916;8.074;2024-01-16T07:22:36;-6.60;99.90
5560;DHT22;2803;47.916;8.074;2024-01-16T07:25:05;-6.80;99.90
5560;DHT22;2803;47.916;8.074;2024-01-16T07:27:31;-7.10;99.90
5560;DHT22;2803;47.916;8.074;2024-01-16T07:29:58;-7.10;99.90
5560;DHT22;2803;47.916;8.074;2024-01-16T07:32:24;-6.90;99.90
5560;DHT22;2803;47.916;8.074;2024-01-16T07:34:52;-7.30;99.90
5560;DHT22;2803;47.916;8.074;2024-01-16T07:37:19;-7.10;99.90
5560;DHT22;2803;47.916;8.074;2024-01-16T07:39:46;-6.90;99.90
5560;DHT22;2803;47.916;8.074;2024-01-16T07:42:13;-6.70;99.90
5560;DHT22;2803;47.916;8.074;2024-01-16T07:44:39;-6.40;99.90
5560;DHT22;2803;47.916;8.074;2024-01-16T07:47:06;-6.20;99.90
5560;DHT22;2803;47.916;8.074;2024-01-16T07:49:33;-6.10;99.90
5560;DHT22;2803;47.916;8.074;2024-01-16T07:52:01;-6.30;99.90
5560;DHT22;2803;47.916;8.074;2024-01-16T07:54:28;-6.30;99.90
5560;DHT22;2803;47.916;8.074;2024-01-16T07:56:56;-6.60;99.90
5560;DHT22;2803;47.916;8.074;2024-01-16T07:59:23;-6.50;99.90
5560;DHT22;2803;47.916;8.074;2024-01-16T08:01:49;-6.10;99.90
5560;DHT22;2803;47.916;8.074;2024-01-16T08:04:16;-5.80;99.90
5560;DHT22;2803;47.916;8.074;2024-01-16T08:06:42;-5.70;99.90
5560;DHT22;2803;47.916;8.074;2024-01-16T08:09:11;-6.00;99.90
5560;DHT22;2803;47.916;8.074;2024-01-16T08:11:38;-6.40;99.90
5560;DHT22;2803;47.916;8.074;2024-01-16T08:14:05;-6.30;99.90
5560;DHT22;2803;47.916;8.074;2024-01-16T08:16:31;-6.10;99.90
5560;DHT22;2803;47.916;8.074;2024-01-16T08:18:58;-5.70;99.90
5560;DHT22;2803;47.916;8.074;2024-01-16T08:21:24;-5.50;99.90
5560;DHT22;2803;47.916;8.074;2024-01-16T08:23:51;-5.50;99.90
5560;DHT22;2803;47.916;8.074;2024-01-16T08:26:19;-5.10;99.90
5560;DHT22;2803;47.916;8.074;2024-01-16T08:28:46;-4.90;99.90
5560;DHT22;2803;47.916;8.074;2024-01-16T08:31:13;-4.60;99.90
5560;DHT22;2803;47.916;8.074;2024-01-16T08:33:42;-4.50;99.90
5560;DHT22;2803;47.916;8.074;2024-01-16T08:36:09;-4.40;99.90
5560;DHT22;2803;47.916;8.074;2024-01-16T08:38:35;-4.10;99.90
5560;DHT22;2803;47.916;8.074;2024-01-16T08:41:02;-4.10;99.90
5560;DHT22;2803;47.916;8.074;2024-01-16T08:43:33;-4.00;99.90
5560;DHT22;2803;47.916;8.074;2024-01-16T08:45:59;-3.80;99.90
5560;DHT22;2803;47.916;8.074;2024-01-16T08:48:26;-4.10;99.90
5560;DHT22;2803;47.916;8.074;2024-01-16T08:50:53;-4.50;99.90
5560;DHT22;2803;47.916;8.074;2024-01-16T08:53:20;-4.80;99.90
5560;DHT22;2803;47.916;8.074;2024-01-16T08:55:48;-5.00;99.90
5560;DHT22;2803;47.916;8.074;2024-01-16T08:58:15;-4.50;99.90
5560;DHT22;2803;47.916;8.074;2024-01-16T09:00:42;-4.60;99.90
5560;DHT22;2803;47.916;8.074;2024-01-16T09:03:09;-4.60;99.90
5560;DHT22;2803;47.916;8.074;2024-01-16T09:05:36;-4.20;99.90
5560;DHT22;2803;47.916;8.074;2024-01-16T09:08:04;-3.70;99.90
5560;DHT22;2803;47.916;8.074;2024-01-16T09:10:31;-3.60;99.90
5560;DHT22;2803;47.916;8.074;2024-01-16T09:12:57;-4.00;99.90
5560;DHT22;2803;47.916;8.074;2024-01-16T09:15:24;-4.10;99.90
5560;DHT22;2803;47.916;8.074;2024-01-16T09:17:52;-4.00;99.90
5560;DHT22;2803;47.916;8.074;2024-01-16T09:20:19;-4.00;99.90
5560;DHT22;2803;47.916;8.074;2024-01-16T09:22:45;-3.70;99.90
5560;DHT22;2803;47.916;8.074;2024-01-16T09:25:12;-3.00;99.90
5560;DHT22;2803;47.916;8.074;2024-01-16T09:27:39;-2.20;99.90
5560;DHT22;2803;47.916;8.074;2024-01-16T09:30:06;-1.60;99.90
5560;DHT22;2803;47.916;8.074;2024-01-16T09:32:33;-1.00;99.90
5560;DHT22;2803;47.916;8.074;2024-01-16T09:35:02;-1.10;99.90
5560;DHT22;2803;47.916;8.074;2024-01-16T09:37:31;-0.90;99.90
5560;DHT22;2803;47.916;8.074;2024-01-16T09:39:58;-0.60;99.90
5560;DHT22;2803;47.916;8.074;2024-01-16T09:42:25;-0.50;99.90
5560;DHT22;2803;47.916;8.074;2024-01-16T09:44:52;-0.20;99.90
5560;DHT22;2803;47.916;8.074;2024-01-16T09:47:21;0.60;99.90
5560;DHT22;2803;47.916;8.074;2024-01-16T09:49:48;0.60;99.90
5560;DHT22;2803;47.916;8.074;2024-01-16T09:52:16;0.30;99.90
5560;DHT22;2803;47.916;8.074;2024-01-16T09:54:43;0.10;99.90
5560;DHT22;2803;47.916;8.074;2024-01-16T09:57:12;0.60;99.90
5560;DHT22;2803;47.916;8.074;2024-01-16T09:59:40;1.00;99.90
5560;DHT22;2803;47.916;8.074;2024-01-16T10:02:08;0.60;99.90
5560;DHT22;2803;47.916;8.074;2024-01-16T10:04:36;0.70;99.90
5560;DHT22;2803;47.916;8.074;2024-01-16T10:07:04;0.80;99.90
5560;DHT22;2803;47.916;8.074;2024-01-16T10:09:33;0.60;99.90
5560;DHT22;2803;47.916;8.074;2024-01-16T10:11:59;1.10;99.90
5560;DHT22;2803;47.916;8.074;2024-01-16T10:14:26;1.30;99.90
5560;DHT22;2803;47.916;8.074;2024-01-16T10:16:55;1.40;99.90
5560;DHT22;2803;47.916;8.074;2024-01-16T10:19:23;1.30;99.90
5560;DHT22;2803;47.916;8.074;2024-01-16T10:21:51;1.20;99.90
5560;DHT22;2803;47.916;8.074;2024-01-16T10:24:17;1.70;99.90
5560;DHT22;2803;47.916;8.074;2024-01-16T10:26:45;2.20;99.90
5560;DHT22;2803;47.916;8.074;2024-01-16T10:29:23;2.80;99.90
5560;DHT22;2803;47.916;8.074;2024-01-16T10:31:50;3.60;99.10
5560;DHT22;2803;47.916;8.074;2024-01-16T10:34:20;4.30;98.20
5560;DHT22;2803;47.916;8.074;2024-01-16T10:36:49;4.90;97.20
5560;DHT22;2803;47.916;8.074;2024-01-16T10:39:16;5.20;96.40
5560;DHT22;2803;47.916;8.074;2024-01-16T10:41:53;5.40;96.10
5560;DHT22;2803;47.916;8.074;2024-01-16T10:44:20;5.60;95.20
5560;DHT22;2803;47.916;8.074;2024-01-16T10:46:46;5.90;94.90
5560;DHT22;2803;47.916;8.074;2024-01-16T10:49:13;6.50;94.30
5560;DHT22;2803;47.916;8.074;2024-01-16T10:51:43;6.30;93.50
5560;DHT22;2803;47.916;8.074;2024-01-16T10:54:12;5.60;93.80
5560;DHT22;2803;47.916;8.074;2024-01-16T10:56:44;6.10;93.80
5560;DHT22;2803;47.916;8.074;2024-01-16T10:59:18;6.70;93.50
5560;DHT22;2803;47.916;8.074;2024-01-16T11:01:48;8.00;92.60
5560;DHT22;2803;47.916;8.074;2024-01-16T11:04:15;8.80;90.80
5560;DHT22;2803;47.916;8.074;2024-01-16T11:06:42;9.20;88.90
5560;DHT22;2803;47.916;8.074;2024-01-16T11:09:13;8.80;87.40
5560;DHT22;2803;47.916;8.074;2024-01-16T11:11:42;9.20;87.30
5560;DHT22;2803;47.916;8.074;2024-01-16T11:14:12;10.00;83.50
5560;DHT22;2803;47.916;8.074;2024-01-16T11:16:40;10.50;80.90
5560;DHT22;2803;47.916;8.074;2024-01-16T11:19:08;10.50;79.70
5560;DHT22;2803;47.916;8.074;2024-01-16T11:21:36;10.20;78.30
5560;DHT22;2803;47.916;8.074;2024-01-16T11:24:03;10.10;78.70
5560;DHT22;2803;47.916;8.074;2024-01-16T11:26:31;9.80;80.20
5560;DHT22;2803;47.916;8.074;2024-01-16T11:28:59;8.50;82.00
5560;DHT22;2803;47.916;8.074;2024-01-16T11:31:31;8.10;82.90
5560;DHT22;2803;47.916;8.074;2024-01-16T11:33:58;7.90;83.30
5560;DHT22;2803;47.916;8.074;2024-01-16T11:36:42;7.40;84.80
5560;DHT22;2803;47.916;8.074;2024-01-16T11:39:10;7.00;86.00
5560;DHT22;2803;47.916;8.074;2024-01-16T11:41:53;6.70;86.20
5560;DHT22;2803;47.916;8.074;2024-01-16T11:44:36;6.30;87.50
5560;DHT22;2803;47.916;8.074;2024-01-16T11:47:05;5.90;88.30
5560;DHT22;2803;47.916;8.074;2024-01-16T11:49:32;5.70;89.80
5560;DHT22;2803;47.916;8.074;2024-01-16T11:51:59;4.60;90.70
5560;DHT22;2803;47.916;8.074;2024-01-16T11:54:26;4.20;91.90
5560;DHT22;2803;47.916;8.074;2024-01-16T11:57:14;3.80;92.90
5560;DHT22;2803;47.916;8.074;2024-01-16T11:59:57;3.30;94.30
5560;DHT22;2803;47.916;8.074;2024-01-16T12:02:34;3.60;94.50
5560;DHT22;2803;47.916;8.074;2024-01-16T12:05:03;3.30;94.50
5560;DHT22;2803;47.916;8.074;2024-01-16T12:07:42;2.80;95.40
5560;DHT22;2803;47.916;8.074;2024-01-16T12:10:09;2.60;96.20
5560;DHT22;2803;47.916;8.074;2024-01-16T12:12:35;2.80;96.30
5560;DHT22;2803;47.916;8.074;2024-01-16T12:15:02;2.50;96.80
5560;DHT22;2803;47.916;8.074;2024-01-16T12:17:31;2.10;98.10
5560;DHT22;2803;47.916;8.074;2024-01-16T12:19:57;2.40;98.50
5560;DHT22;2803;47.916;8.074;2024-01-16T12:22:24;1.90;98.10
5560;DHT22;2803;47.916;8.074;2024-01-16T12:24:55;1.80;98.90
5560;DHT22;2803;47.916;8.074;2024-01-16T12:27:22;1.60;99.50
5560;DHT22;2803;47.916;8.074;2024-01-16T12:29:49;1.60;99.90
5560;DHT22;2803;47.916;8.074;2024-01-16T12:32:17;1.90;99.90
5560;DHT22;2803;47.916;8.074;2024-01-16T12:34:47;1.80;99.90
5560;DHT22;2803;47.916;8.074;2024-01-16T12:37:14;1.40;99.90
5560;DHT22;2803;47.916;8.074;2024-01-16T12:39:41;1.60;99.90
5560;DHT22;2803;47.916;8.074;2024-01-16T12:42:09;1.70;99.90
5560;DHT22;2803;47.916;8.074;2024-01-16T12:44:37;1.90;99.90
5560;DHT22;2803;47.916;8.074;2024-01-16T12:47:04;2.10;99.90
5560;DHT22;2803;47.916;8.074;2024-01-16T12:49:31;2.10;99.90
5560;DHT22;2803;47.916;8.074;2024-01-16T12:52:15;2.10;99.90
5560;DHT22;2803;47.916;8.074;2024-01-16T12:54:43;1.80;99.90
5560;DHT22;2803;47.916;8.074;2024-01-16T12:57:10;1.40;99.90
5560;DHT22;2803;47.916;8.074;2024-01-16T12:59:39;1.20;99.90
5560;DHT22;2803;47.916;8.074;2024-01-16T13:02:06;1.30;99.90
5560;DHT22;2803;47.916;8.074;2024-01-16T13:04:33;1.40;99.90
5560;DHT22;2803;47.916;8.074;2024-01-16T13:07:01;1.60;99.90
5560;DHT22;2803;47.916;8.074;2024-01-16T13:09:29;1.70;99.90
5560;DHT22;2803;47.916;8.074;2024-01-16T13:11:57;1.80;99.90
5560;DHT22;2803;47.916;8.074;2024-01-16T13:14:24;1.90;99.90
5560;DHT22;2803;47.916;8.074;2024-01-16T13:16:52;1.90;99.90
5560;DHT22;2803;47.916;8.074;2024-01-16T13:19:21;2.00;99.90
5560;DHT22;2803;47.916;8.074;2024-01-16T13:21:48;2.10;99.90
5560;DHT22;2803;47.916;8.074;2024-01-16T13:24:15;2.20;99.90
5560;DHT22;2803;47.916;8.074;2024-01-16T13:26:44;2.10;99.90
5560;DHT22;2803;47.916;8.074;2024-01-16T13:29:10;1.90;99.90
5560;DHT22;2803;47.916;8.074;2024-01-16T13:31:37;1.60;99.90
5560;DHT22;2803;47.916;8.074;2024-01-16T13:34:04;1.70;99.90
5560;DHT22;2803;47.916;8.074;2024-01-16T13:36:30;1.50;99.90
5560;DHT22;2803;47.916;8.074;2024-01-16T13:38:57;1.50;99.90
5560;DHT22;2803;47.916;8.074;2024-01-16T13:41:24;1.60;99.90
5560;DHT22;2803;47.916;8.074;2024-01-16T13:43:52;1.70;99.90
5560;DHT22;2803;47.916;8.074;2024-01-16T13:46:19;1.80;99.90
5560;DHT22;2803;47.916;8.074;2024-01-16T13:48:47;2.00;99.90
5560;DHT22;2803;47.916;8.074;2024-01-16T13:51:14;1.90;99.90
5560;DHT22;2803;47.916;8.074;2024-01-16T13:53:41;2.00;99.90
5560;DHT22;2803;47.916;8.074;2024-01-16T13:56:07;1.70;99.90
5560;DHT22;2803;47.916;8.074;2024-01-16T13:58:34;1.90;99.90
5560;DHT22;2803;47.916;8.074;2024-01-16T14:01:02;1.70;99.90
5560;DHT22;2803;47.916;8.074;2024-01-16T14:03:29;1.80;99.90
5560;DHT22;2803;47.916;8.074;2024-01-16T14:05:56;1.60;99.90
5560;DHT22;2803;47.916;8.074;2024-01-16T14:08:22;1.70;99.90
5560;DHT22;2803;47.916;8.074;2024-01-16T14:10:49;1.40;99.90
5560;DHT22;2803;47.916;8.074;2024-01-16T14:13:16;1.20;99.90
5560;DHT22;2803;47.916;8.074;2024-01-16T14:15:43;1.30;99.90
5560;DHT22;2803;47.916;8.074;2024-01-16T14:18:11;1.40;99.90
5560;DHT22;2803;47.916;8.074;2024-01-16T14:20:37;1.60;99.90
5560;DHT22;2803;47.916;8.074;2024-01-16T14:23:04;1.50;99.90
5560;DHT22;2803;47.916;8.074;2024-01-16T14:25:30;1.50;99.90
5560;DHT22;2803;47.916;8.074;2024-01-16T14:27:58;1.40;99.90
5560;DHT22;2803;47.916;8.074;2024-01-16T14:30:26;1.60;99.90
5560;DHT22;2803;47.916;8.074;2024-01-16T14:32:53;1.70;99.90
5560;DHT22;2803;47.916;8.074;2024-01-16T14:35:22;1.70;99.90
5560;DHT22;2803;47.916;8.074;2024-01-16T14:37:49;1.40;99.90
5560;DHT22;2803;47.916;8.074;2024-01-16T14:40:16;1.50;99.90
5560;DHT22;2803;47.916;8.074;2024-01-16T14:42:46;1.20;99.90
5560;DHT22;2803;47.916;8.074;2024-01-16T14:45:14;1.10;99.90
5560;DHT22;2803;47.916;8.074;2024-01-16T14:47:41;1.10;99.90
5560;DHT22;2803;47.916;8.074;2024-01-16T14:50:08;1.30;99.90
5560;DHT22;2803;47.916;8.074;2024-01-16T14:52:36;1.20;99.90
5560;DHT22;2803;47.916;8.074;2024-01-16T14:55:04;1.20;99.90
5560;DHT22;2803;47.916;8.074;2024-01-16T14:57:33;1.10;99.90
5560;DHT22;2803;47.916;8.074;2024-01-16T15:00:03;0.60;99.90
5560;DHT22;2803;47.916;8.074;2024-01-16T15:02:39;0.80;99.90
5560;DHT22;2803;47.916;8.074;2024-01-16T15:05:05;1.00;99.90
5560;DHT22;2803;47.916;8.074;2024-01-16T15:07:32;1.00;99.90
5560;DHT22;2803;47.916;8.074;2024-01-16T15:10:01;1.00;99.90
5560;DHT22;2803;47.916;8.074;2024-01-16T15:12:31;1.20;99.90
5560;DHT22;2803;47.916;8.074;2024-01-16T15:14:57;1.30;99.90
5560;DHT22;2803;47.916;8.074;2024-01-16T15:17:24;1.20;99.90
5560;DHT22;2803;47.916;8.074;2024-01-16T15:19:52;0.90;99.90
5560;DHT22;2803;47.916;8.074;2024-01-16T15:22:19;0.70;99.90
5560;DHT22;2803;47.916;8.074;2024-01-16T15:24:46;0.80;99.90
5560;DHT22;2803;47.916;8.074;2024-01-16T15:27:14;0.70;99.90
5560;DHT22;2803;47.916;8.074;2024-01-16T15:29:41;0.90;99.90
5560;DHT22;2803;47.916;8.074;2024-01-16T15:32:08;0.90;99.90
5560;DHT22;2803;47.916;8.074;2024-01-16T15:34:36;0.80;99.90
5560;DHT22;2803;47.916;8.074;2024-01-16T15:37:02;0.50;99.90
5560;DHT22;2803;47.916;8.074;2024-01-16T15:39:29;-0.10;99.90
5560;DHT22;2803;47.916;8.074;2024-01-16T15:41:56;0.00;99.90
5560;DHT22;2803;47.916;8.074;2024-01-16T15:44:24;0.20;99.90
5560;DHT22;2803;47.916;8.074;2024-01-16T15:46:54;0.00;99.90
5560;DHT22;2803;47.916;8.074;2024-01-16T15:49:21;0.00;99.90
5560;DHT22;2803;47.916;8.074;2024-01-16T15:51:48;-0.20;99.90
5560;DHT22;2803;47.916;8.074;2024-01-16T15:54:15;-0.10;99.90
5560;DHT22;2803;47.916;8.074;2024-01-16T15:56:42;0.00;99.90
5560;DHT22;2803;47.916;8.074;2024-01-16T15:59:08;0.20;99.90
5560;DHT22;2803;47.916;8.074;2024-01-16T16:01:38;0.30;99.90
5560;DHT22;2803;47.916;8.074;2024-01-16T16:04:05;0.40;99.90
5560;DHT22;2803;47.916;8.074;2024-01-16T16:06:33;0.40;99.90
5560;DHT22;2803;47.916;8.074;2024-01-16T16:09:00;0.50;99.90